sensor_id;sensor_type;location;lat;lon;timestamp;P1;durP1;ratioP1;P2;durP2;ratioP2
11054;SDS011;5580;50.106;8.702;2023-09-19T00:02:23;7.97;;;3.07;;
11054;SDS011;5580;50.106;8.702;2023-09-19T00:04:48;5.40;;;3.07;;
11054;SDS011;5580;50.106;8.702;2023-09-19T00:07:15;5.13;;;3.10;;
11054;SDS011;5580;50.106;8.702;2023-09-19T00:09:41;9.50;;;3.30;;
11054;SDS011;5580;50.106;8.702;2023-09-19T00:12:09;6.10;;;3.10;;
11054;SDS011;5580;50.106;8.702;2023-09-19T00:14:34;5.37;;;3.30;;
11054;SDS011;5580;50.106;8.702;2023-09-19T00:17:01;5.23;;;3.07;;
11054;SDS011;5580;50.106;8.702;2023-09-19T00:19:33;5.60;;;3.00;;
11054;SDS011;5580;50.106;8.702;2023-09-19T00:22:02;7.03;;;2.93;;
11054;SDS011;5580;50.106;8.702;2023-09-19T00:24:29;5.43;;;3.00;;
11054;SDS011;5580;50.106;8.702;2023-09-19T00:26:55;7.83;;;3.27;;
11054;SDS011;5580;50.106;8.702;2023-09-19T00:29:21;8.13;;;3.20;;
11054;SDS011;5580;50.106;8.702;2023-09-19T00:31:48;5.20;;;3.17;;
11054;SDS011;5580;50.106;8.702;2023-09-19T00:34:14;6.80;;;3.47;;
11054;SDS011;5580;50.106;8.702;2023-09-19T00:36:41;6.73;;;3.07;;
11054;SDS011;5580;50.106;8.702;2023-09-19T00:39:08;4.90;;;3.00;;
11054;SDS011;5580;50.106;8.702;2023-09-19T00:41:35;5.07;;;3.03;;
11054;SDS011;5580;50.106;8.702;2023-09-19T00:44:01;6.07;;;3.23;;
11054;SDS011;5580;50.106;8.702;2023-09-19T00:46:28;5.57;;;3.23;;
11054;SDS011;5580;50.106;8.702;2023-09-19T00:48:55;3.87;;;3.07;;
11054;SDS011;5580;50.106;8.702;2023-09-19T00:51:22;6.90;;;3.17;;
11054;SDS011;5580;50.106;8.702;2023-09-19T00:53:51;7.77;;;3.10;;
11054;SDS011;5580;50.106;8.702;2023-09-19T00:56:17;6.60;;;3.00;;
11054;SDS011;5580;50.106;8.702;2023-09-19T00:58:44;5.13;;;2.87;;
11054;SDS011;5580;50.106;8.702;2023-09-19T01:01:11;6.03;;;3.20;;
11054;SDS011;5580;50.106;8.702;2023-09-19T01:03:39;7.77;;;3.43;;
11054;SDS011;5580;50.106;8.702;2023-09-19T01:06:09;4.03;;;2.93;;
11054;SDS011;5580;50.106;8.702;2023-09-19T01:08:35;5.13;;;3.23;;
11054;SDS011;5580;50.106;8.702;2023-09-19T01:16:31;4.70;;;3.53;;
11054;SDS011;5580;50.106;8.702;2023-09-19T01:30:11;10.30;;;3.50;;
11054;SDS011;5580;50.106;8.702;2023-09-19T01:32:42;7.83;;;3.40;;
11054;SDS011;5580;50.106;8.702;2023-09-19T01:35:11;4.37;;;3.03;;
11054;SDS011;5580;50.106;8.702;2023-09-19T01:37:38;7.37;;;3.20;;
11054;SDS011;5580;50.106;8.702;2023-09-19T01:40:04;5.80;;;3.40;;
11054;SDS011;5580;50.106;8.702;2023-09-19T01:47:38;5.97;;;3.23;;
11054;SDS011;5580;50.106;8.702;2023-09-19T01:52:53;7.30;;;3.30;;
11054;SDS011;5580;50.106;8.702;2023-09-19T01:55:22;6.77;;;3.50;;
11054;SDS011;5580;50.106;8.702;2023-09-19T01:57:54;7.90;;;3.50;;
11054;SDS011;5580;50.106;8.702;2023-09-19T02:00:29;5.40;;;3.10;;
11054;SDS011;5580;50.106;8.702;2023-09-19T02:02:59;7.50;;;3.53;;
11054;SDS011;5580;50.106;8.702;2023-09-19T02:05:25;9.50;;;3.60;;
11054;SDS011;5580;50.106;8.702;2023-09-19T02:07:52;6.13;;;3.70;;
11054;SDS011;5580;50.106;8.702;2023-09-19T02:10:18;6.63;;;3.37;;
11054;SDS011;5580;50.106;8.702;2023-09-19T02:12:45;7.27;;;3.63;;
11054;SDS011;5580;50.106;8.702;2023-09-19T02:15:11;5.13;;;3.27;;
11054;SDS011;5580;50.106;8.702;2023-09-19T02:17:37;7.07;;;3.77;;
11054;SDS011;5580;50.106;8.702;2023-09-19T02:20:03;7.03;;;3.37;;
11054;SDS011;5580;50.106;8.702;2023-09-19T02:22:35;5.63;;;3.47;;
11054;SDS011;5580;50.106;8.702;2023-09-19T02:25:01;6.53;;;3.50;;
11054;SDS011;5580;50.106;8.702;2023-09-19T02:27:29;8.53;;;3.97;;
11054;SDS011;5580;50.106;8.702;2023-09-19T02:29:55;6.00;;;3.60;;
11054;SDS011;5580;50.106;8.702;2023-09-19T02:32:21;5.37;;;3.23;;
11054;SDS011;5580;50.106;8.702;2023-09-19T02:34:48;5.10;;;3.30;;
11054;SDS011;5580;50.106;8.702;2023-09-19T02:37:13;3.93;;;3.30;;
11054;SDS011;5580;50.106;8.702;2023-09-19T02:39:41;6.03;;;3.33;;
11054;SDS011;5580;50.106;8.702;2023-09-19T02:42:07;6.50;;;3.50;;
11054;SDS011;5580;50.106;8.702;2023-09-19T02:44:33;8.40;;;3.90;;
11054;SDS011;5580;50.106;8.702;2023-09-19T02:47:00;8.97;;;3.60;;
11054;SDS011;5580;50.106;8.702;2023-09-19T02:49:26;6.27;;;3.90;;
11054;SDS011;5580;50.106;8.702;2023-09-19T02:51:52;5.47;;;3.90;;
11054;SDS011;5580;50.106;8.702;2023-09-19T02:54:17;4.90;;;3.57;;
11054;SDS011;5580;50.106;8.702;2023-09-19T02:56:44;4.87;;;3.67;;
11054;SDS011;5580;50.106;8.702;2023-09-19T02:59:10;8.03;;;4.10;;
11054;SDS011;5580;50.106;8.702;2023-09-19T03:01:36;7.03;;;3.70;;
11054;SDS011;5580;50.106;8.702;2023-09-19T03:04:03;7.23;;;3.80;;
11054;SDS011;5580;50.106;8.702;2023-09-19T03:06:31;4.07;;;3.40;;
11054;SDS011;5580;50.106;8.702;2023-09-19T03:08:57;8.20;;;4.00;;
11054;SDS011;5580;50.106;8.702;2023-09-19T03:11:25;10.70;;;3.70;;
11054;SDS011;5580;50.106;8.702;2023-09-19T03:13:51;5.40;;;3.70;;
11054;SDS011;5580;50.106;8.702;2023-09-19T03:16:17;6.27;;;3.43;;
11054;SDS011;5580;50.106;8.702;2023-09-19T03:18:44;6.57;;;3.70;;
11054;SDS011;5580;50.106;8.702;2023-09-19T03:21:10;8.20;;;3.60;;
11054;SDS011;5580;50.106;8.702;2023-09-19T03:23:35;7.03;;;3.73;;
11054;SDS011;5580;50.106;8.702;2023-09-19T03:26:01;7.47;;;3.83;;
11054;SDS011;5580;50.106;8.702;2023-09-19T03:28:26;4.87;;;3.87;;
11054;SDS011;5580;50.106;8.702;2023-09-19T03:31:02;7.60;;;3.90;;
11054;SDS011;5580;50.106;8.702;2023-09-19T03:33:31;6.60;;;3.67;;
11054;SDS011;5580;50.106;8.702;2023-09-19T03:35:58;8.33;;;4.00;;
11054;SDS011;5580;50.106;8.702;2023-09-19T03:38:24;4.63;;;3.70;;
11054;SDS011;5580;50.106;8.702;2023-09-19T03:40:50;5.33;;;3.70;;
11054;SDS011;5580;50.106;8.702;2023-09-19T03:43:15;8.30;;;3.93;;
11054;SDS011;5580;50.106;8.702;2023-09-19T03:45:41;5.77;;;3.60;;
11054;SDS011;5580;50.106;8.702;2023-09-19T03:48:10;5.70;;;3.80;;
11054;SDS011;5580;50.106;8.702;2023-09-19T03:50:36;4.33;;;3.77;;
11054;SDS011;5580;50.106;8.702;2023-09-19T03:53:02;5.40;;;4.03;;
11054;SDS011;5580;50.106;8.702;2023-09-19T03:55:28;8.97;;;4.23;;
11054;SDS011;5580;50.106;8.702;2023-09-19T03:57:57;6.20;;;3.60;;
11054;SDS011;5580;50.106;8.702;2023-09-19T04:00:23;9.00;;;4.33;;
11054;SDS011;5580;50.106;8.702;2023-09-19T04:02:51;6.40;;;3.80;;
11054;SDS011;5580;50.106;8.702;2023-09-19T04:05:17;6.63;;;3.90;;
11054;SDS011;5580;50.106;8.702;2023-09-19T04:07:43;6.07;;;3.80;;
11054;SDS011;5580;50.106;8.702;2023-09-19T04:10:09;6.13;;;3.53;;
11054;SDS011;5580;50.106;8.702;2023-09-19T04:12:36;4.43;;;3.60;;
11054;SDS011;5580;50.106;8.702;2023-09-19T04:15:03;6.67;;;3.70;;
11054;SDS011;5580;50.106;8.702;2023-09-19T04:17:32;5.33;;;3.67;;
11054;SDS011;5580;50.106;8.702;2023-09-19T04:19:58;7.77;;;4.20;;
11054;SDS011;5580;50.106;8.702;2023-09-19T04:22:24;10.30;;;4.10;;
11054;SDS011;5580;50.106;8.702;2023-09-19T04:24:50;7.87;;;3.80;;
11054;SDS011;5580;50.106;8.702;2023-09-19T04:27:15;9.43;;;3.73;;
11054;SDS011;5580;50.106;8.702;2023-09-19T04:29:41;8.27;;;3.80;;
11054;SDS011;5580;50.106;8.702;2023-09-19T04:32:07;4.23;;;3.43;;
11054;SDS011;5580;50.106;8.702;2023-09-19T04:34:33;6.63;;;3.70;;
11054;SDS011;5580;50.106;8.702;2023-09-19T04:36:59;5.67;;;3.80;;
11054;SDS011;5580;50.106;8.702;2023-09-19T04:39:25;8.03;;;3.90;;
11054;SDS011;5580;50.106;8.702;2023-09-19T04:41:52;8.20;;;3.60;;
11054;SDS011;5580;50.106;8.702;2023-09-19T04:44:18;5.77;;;3.60;;
11054;SDS011;5580;50.106;8.702;2023-09-19T04:46:44;6.33;;;3.90;;
11054;SDS011;5580;50.106;8.702;2023-09-19T04:49:11;5.67;;;3.80;;
11054;SDS011;5580;50.106;8.702;2023-09-19T04:51:37;5.03;;;3.37;;
11054;SDS011;5580;50.106;8.702;2023-09-19T04:54:03;5.67;;;3.70;;
11054;SDS011;5580;50.106;8.702;2023-09-19T04:56:29;6.17;;;3.67;;
11054;SDS011;5580;50.106;8.702;2023-09-19T04:58:55;6.30;;;4.00;;
11054;SDS011;5580;50.106;8.702;2023-09-19T05:01:20;6.60;;;3.43;;
11054;SDS011;5580;50.106;8.702;2023-09-19T05:03:47;4.87;;;3.40;;
11054;SDS011;5580;50.106;8.702;2023-09-19T05:06:17;7.90;;;3.47;;
11054;SDS011;5580;50.106;8.702;2023-09-19T05:08:46;7.13;;;3.77;;
11054;SDS011;5580;50.106;8.702;2023-09-19T05:11:17;4.83;;;3.43;;
11054;SDS011;5580;50.106;8.702;2023-09-19T05:13:43;6.33;;;3.73;;
11054;SDS011;5580;50.106;8.702;2023-09-19T05:16:09;7.43;;;3.97;;
11054;SDS011;5580;50.106;8.702;2023-09-19T05:18:35;7.17;;;3.87;;
11054;SDS011;5580;50.106;8.702;2023-09-19T05:21:04;6.07;;;3.53;;
11054;SDS011;5580;50.106;8.702;2023-09-19T05:23:30;7.37;;;3.43;;
11054;SDS011;5580;50.106;8.702;2023-09-19T05:25:56;5.67;;;3.77;;
11054;SDS011;5580;50.106;8.702;2023-09-19T05:28:25;8.30;;;3.87;;
11054;SDS011;5580;50.106;8.702;2023-09-19T05:30:52;6.47;;;4.00;;
11054;SDS011;5580;50.106;8.702;2023-09-19T05:33:18;4.47;;;3.50;;
11054;SDS011;5580;50.106;8.702;2023-09-19T05:35:44;5.80;;;3.77;;
11054;SDS011;5580;50.106;8.702;2023-09-19T05:38:12;6.60;;;4.10;;
11054;SDS011;5580;50.106;8.702;2023-09-19T05:40:38;8.13;;;3.80;;
11054;SDS011;5580;50.106;8.702;2023-09-19T05:43:10;8.23;;;3.83;;
11054;SDS011;5580;50.106;8.702;2023-09-19T05:45:36;7.63;;;4.07;;
11054;SDS011;5580;50.106;8.702;2023-09-19T05:48:12;6.33;;;3.70;;
11054;SDS011;5580;50.106;8.702;2023-09-19T05:50:38;7.37;;;3.87;;
11054;SDS011;5580;50.106;8.702;2023-09-19T05:53:04;8.00;;;3.57;;
11054;SDS011;5580;50.106;8.702;2023-09-19T05:55:31;7.13;;;4.00;;
11054;SDS011;5580;50.106;8.702;2023-09-19T05:57:57;7.07;;;3.63;;
11054;SDS011;5580;50.106;8.702;2023-09-19T06:00:23;8.13;;;3.60;;
11054;SDS011;5580;50.106;8.702;2023-09-19T06:02:53;6.83;;;3.90;;
11054;SDS011;5580;50.106;8.702;2023-09-19T06:05:23;7.33;;;3.83;;
11054;SDS011;5580;50.106;8.702;2023-09-19T06:07:53;7.50;;;3.60;;
11054;SDS011;5580;50.106;8.702;2023-09-19T06:10:19;7.93;;;3.90;;
11054;SDS011;5580;50.106;8.702;2023-09-19T06:12:48;6.97;;;3.90;;
11054;SDS011;5580;50.106;8.702;2023-09-19T06:15:14;7.77;;;3.70;;
11054;SDS011;5580;50.106;8.702;2023-09-19T06:17:46;9.03;;;3.90;;
11054;SDS011;5580;50.106;8.702;2023-09-19T06:20:13;9.63;;;3.97;;
11054;SDS011;5580;50.106;8.702;2023-09-19T06:22:39;8.27;;;3.97;;
11054;SDS011;5580;50.106;8.702;2023-09-19T06:25:10;10.20;;;4.13;;
11054;SDS011;5580;50.106;8.702;2023-09-19T06:27:37;11.03;;;4.40;;
11054;SDS011;5580;50.106;8.702;2023-09-19T06:30:07;9.87;;;4.50;;
11054;SDS011;5580;50.106;8.702;2023-09-19T06:32:34;8.73;;;4.20;;
11054;SDS011;5580;50.106;8.702;2023-09-19T06:35:00;11.63;;;4.60;;
11054;SDS011;5580;50.106;8.702;2023-09-19T06:37:29;10.20;;;4.33;;
11054;SDS011;5580;50.106;8.702;2023-09-19T06:39:55;11.47;;;4.50;;
11054;SDS011;5580;50.106;8.702;2023-09-19T06:42:22;8.80;;;4.60;;
11054;SDS011;5580;50.106;8.702;2023-09-19T06:44:48;6.87;;;4.10;;
11054;SDS011;5580;50.106;8.702;2023-09-19T06:47:14;9.70;;;4.57;;
11054;SDS011;5580;50.106;8.702;2023-09-19T06:49:41;8.00;;;4.27;;
11054;SDS011;5580;50.106;8.702;2023-09-19T06:52:09;9.33;;;4.20;;
11054;SDS011;5580;50.106;8.702;2023-09-19T06:54:34;7.97;;;4.07;;
11054;SDS011;5580;50.106;8.702;2023-09-19T06:57:01;9.30;;;4.20;;
11054;SDS011;5580;50.106;8.702;2023-09-19T06:59:26;7.53;;;4.43;;
11054;SDS011;5580;50.106;8.702;2023-09-19T07:01:52;8.70;;;4.60;;
11054;SDS011;5580;50.106;8.702;2023-09-19T07:04:18;7.23;;;4.40;;
11054;SDS011;5580;50.106;8.702;2023-09-19T07:06:44;9.80;;;4.57;;
11054;SDS011;5580;50.106;8.702;2023-09-19T07:09:18;8.50;;;4.10;;
11054;SDS011;5580;50.106;8.702;2023-09-19T07:11:45;7.37;;;4.13;;
11054;SDS011;5580;50.106;8.702;2023-09-19T07:14:10;7.90;;;4.20;;
11054;SDS011;5580;50.106;8.702;2023-09-19T07:16:37;8.37;;;4.20;;
11054;SDS011;5580;50.106;8.702;2023-09-19T07:19:07;10.23;;;4.17;;
11054;SDS011;5580;50.106;8.702;2023-09-19T07:21:33;8.50;;;4.07;;
11054;SDS011;5580;50.106;8.702;2023-09-19T07:24:00;8.23;;;4.00;;
11054;SDS011;5580;50.106;8.702;2023-09-19T07:26:27;6.80;;;3.70;;
11054;SDS011;5580;50.106;8.702;2023-09-19T07:28:53;7.20;;;3.90;;
11054;SDS011;5580;50.106;8.702;2023-09-19T07:31:19;7.73;;;4.03;;
11054;SDS011;5580;50.106;8.702;2023-09-19T07:33:45;7.87;;;4.00;;
11054;SDS011;5580;50.106;8.702;2023-09-19T07:36:11;7.47;;;4.00;;
11054;SDS011;5580;50.106;8.702;2023-09-19T07:38:38;7.53;;;3.90;;
11054;SDS011;5580;50.106;8.702;2023-09-19T07:41:04;6.77;;;3.90;;
11054;SDS011;5580;50.106;8.702;2023-09-19T07:43:30;7.80;;;3.93;;
11054;SDS011;5580;50.106;8.702;2023-09-19T07:45:56;5.53;;;3.47;;
11054;SDS011;5580;50.106;8.702;2023-09-19T07:48:22;6.97;;;3.40;;
11054;SDS011;5580;50.106;8.702;2023-09-19T07:50:49;8.43;;;3.67;;
11054;SDS011;5580;50.106;8.702;2023-09-19T07:53:14;6.30;;;3.50;;
11054;SDS011;5580;50.106;8.702;2023-09-19T07:55:42;7.97;;;3.47;;
11054;SDS011;5580;50.106;8.702;2023-09-19T07:58:12;8.00;;;3.70;;
11054;SDS011;5580;50.106;8.702;2023-09-19T08:00:38;8.97;;;3.83;;
11054;SDS011;5580;50.106;8.702;2023-09-19T08:03:04;7.60;;;3.47;;
11054;SDS011;5580;50.106;8.702;2023-09-19T08:05:30;8.17;;;3.40;;
11054;SDS011;5580;50.106;8.702;2023-09-19T08:07:58;6.27;;;3.43;;
11054;SDS011;5580;50.106;8.702;2023-09-19T08:10:24;5.83;;;3.57;;
11054;SDS011;5580;50.106;8.702;2023-09-19T08:12:52;8.27;;;3.77;;
11054;SDS011;5580;50.106;8.702;2023-09-19T08:15:23;7.03;;;3.33;;
11054;SDS011;5580;50.106;8.702;2023-09-19T08:17:49;7.50;;;3.57;;
11054;SDS011;5580;50.106;8.702;2023-09-19T08:20:15;12.03;;;4.10;;
11054;SDS011;5580;50.106;8.702;2023-09-19T08:25:15;5.90;;;3.47;;
11054;SDS011;5580;50.106;8.702;2023-09-19T08:27:44;9.77;;;3.47;;
11054;SDS011;5580;50.106;8.702;2023-09-19T08:30:15;8.73;;;3.57;;
11054;SDS011;5580;50.106;8.702;2023-09-19T08:32:41;7.37;;;3.87;;
11054;SDS011;5580;50.106;8.702;2023-09-19T08:35:08;7.87;;;3.40;;
11054;SDS011;5580;50.106;8.702;2023-09-19T08:37:34;7.17;;;3.30;;
11054;SDS011;5580;50.106;8.702;2023-09-19T08:40:00;7.23;;;3.30;;
11054;SDS011;5580;50.106;8.702;2023-09-19T08:42:26;6.87;;;3.50;;
11054;SDS011;5580;50.106;8.702;2023-09-19T08:44:52;5.80;;;3.23;;
11054;SDS011;5580;50.106;8.702;2023-09-19T08:47:20;10.17;;;4.00;;
11054;SDS011;5580;50.106;8.702;2023-09-19T08:49:59;9.17;;;4.00;;
11054;SDS011;5580;50.106;8.702;2023-09-19T08:52:41;6.07;;;3.70;;
11054;SDS011;5580;50.106;8.702;2023-09-19T08:55:07;8.97;;;3.80;;
11054;SDS011;5580;50.106;8.702;2023-09-19T08:57:38;6.67;;;3.80;;
11054;SDS011;5580;50.106;8.702;2023-09-19T09:00:07;6.93;;;3.70;;
11054;SDS011;5580;50.106;8.702;2023-09-19T09:02:39;7.40;;;3.80;;
11054;SDS011;5580;50.106;8.702;2023-09-19T09:05:07;6.27;;;3.67;;
11054;SDS011;5580;50.106;8.702;2023-09-19T09:07:34;8.03;;;3.37;;
11054;SDS011;5580;50.106;8.702;2023-09-19T09:10:02;6.83;;;3.50;;
11054;SDS011;5580;50.106;8.702;2023-09-19T09:12:28;9.63;;;3.70;;
11054;SDS011;5580;50.106;8.702;2023-09-19T09:14:55;8.27;;;3.60;;
11054;SDS011;5580;50.106;8.702;2023-09-19T09:17:22;8.37;;;3.70;;
11054;SDS011;5580;50.106;8.702;2023-09-19T09:19:51;7.80;;;3.57;;
11054;SDS011;5580;50.106;8.702;2023-09-19T09:22:18;9.17;;;3.50;;
11054;SDS011;5580;50.106;8.702;2023-09-19T09:24:56;10.67;;;3.80;;
11054;SDS011;5580;50.106;8.702;2023-09-19T09:27:29;7.93;;;3.40;;
11054;SDS011;5580;50.106;8.702;2023-09-19T09:29:56;9.67;;;3.70;;
11054;SDS011;5580;50.106;8.702;2023-09-19T09:32:23;7.87;;;3.43;;
11054;SDS011;5580;50.106;8.702;2023-09-19T09:34:58;8.23;;;3.73;;
11054;SDS011;5580;50.106;8.702;2023-09-19T09:37:25;7.53;;;3.50;;
11054;SDS011;5580;50.106;8.702;2023-09-19T09:39:53;11.23;;;4.10;;
11054;SDS011;5580;50.106;8.702;2023-09-19T09:42:41;8.93;;;3.97;;
11054;SDS011;5580;50.106;8.702;2023-09-19T09:47:58;8.47;;;3.50;;
11054;SDS011;5580;50.106;8.702;2023-09-19T09:50:29;7.07;;;3.43;;
11054;SDS011;5580;50.106;8.702;2023-09-19T09:53:22;10.40;;;3.97;;
11054;SDS011;5580;50.106;8.702;2023-09-19T09:55:57;8.97;;;3.50;;
11054;SDS011;5580;50.106;8.702;2023-09-19T09:58:27;10.07;;;4.00;;
11054;SDS011;5580;50.106;8.702;2023-09-19T10:00:57;7.00;;;3.50;;
11054;SDS011;5580;50.106;8.702;2023-09-19T10:03:32;11.07;;;4.13;;
11054;SDS011;5580;50.106;8.702;2023-09-19T10:06:05;6.80;;;3.53;;
11054;SDS011;5580;50.106;8.702;2023-09-19T10:09:06;7.17;;;3.40;;
11054;SDS011;5580;50.106;8.702;2023-09-19T10:11:43;8.80;;;3.40;;
11054;SDS011;5580;50.106;8.702;2023-09-19T10:14:15;10.27;;;3.67;;
11054;SDS011;5580;50.106;8.702;2023-09-19T10:16:45;10.63;;;3.90;;
11054;SDS011;5580;50.106;8.702;2023-09-19T10:19:20;10.80;;;4.07;;
11054;SDS011;5580;50.106;8.702;2023-09-19T10:21:49;11.73;;;3.90;;
11054;SDS011;5580;50.106;8.702;2023-09-19T10:24:20;11.13;;;4.20;;
11054;SDS011;5580;50.106;8.702;2023-09-19T10:26:46;10.07;;;3.77;;
11054;SDS011;5580;50.106;8.702;2023-09-19T10:29:15;11.60;;;3.93;;
11054;SDS011;5580;50.106;8.702;2023-09-19T10:31:42;11.70;;;4.13;;
11054;SDS011;5580;50.106;8.702;2023-09-19T10:34:14;10.17;;;4.00;;
11054;SDS011;5580;50.106;8.702;2023-09-19T10:36:40;9.63;;;4.07;;
11054;SDS011;5580;50.106;8.702;2023-09-19T10:39:10;9.93;;;4.00;;
11054;SDS011;5580;50.106;8.702;2023-09-19T10:41:38;9.97;;;3.90;;
11054;SDS011;5580;50.106;8.702;2023-09-19T10:44:04;14.40;;;4.40;;
11054;SDS011;5580;50.106;8.702;2023-09-19T10:46:31;9.40;;;3.93;;
11054;SDS011;5580;50.106;8.702;2023-09-19T10:48:59;12.67;;;4.17;;
11054;SDS011;5580;50.106;8.702;2023-09-19T10:51:25;15.30;;;4.10;;
11054;SDS011;5580;50.106;8.702;2023-09-19T10:56:37;10.43;;;4.17;;
11054;SDS011;5580;50.106;8.702;2023-09-19T10:59:13;10.47;;;4.07;;
11054;SDS011;5580;50.106;8.702;2023-09-19T11:07:00;10.77;;;3.83;;
11054;SDS011;5580;50.106;8.702;2023-09-19T11:14:56;9.03;;;3.97;;
11054;SDS011;5580;50.106;8.702;2023-09-19T11:17:35;6.60;;;3.50;;
11054;SDS011;5580;50.106;8.702;2023-09-19T11:33:18;9.10;;;3.70;;
11054;SDS011;5580;50.106;8.702;2023-09-19T11:46:25;9.47;;;3.73;;
11054;SDS011;5580;50.106;8.702;2023-09-19T11:48:53;7.83;;;3.87;;
11054;SDS011;5580;50.106;8.702;2023-09-19T11:51:20;12.53;;;3.90;;
11054;SDS011;5580;50.106;8.702;2023-09-19T11:53:49;10.97;;;3.90;;
11054;SDS011;5580;50.106;8.702;2023-09-19T11:56:16;9.37;;;3.90;;
11054;SDS011;5580;50.106;8.702;2023-09-19T11:58:44;11.70;;;3.87;;
11054;SDS011;5580;50.106;8.702;2023-09-19T12:01:14;11.67;;;4.37;;
11054;SDS011;5580;50.106;8.702;2023-09-19T12:03:46;7.73;;;3.70;;
11054;SDS011;5580;50.106;8.702;2023-09-19T12:06:17;11.63;;;3.70;;
11054;SDS011;5580;50.106;8.702;2023-09-19T12:08:43;10.47;;;3.73;;
11054;SDS011;5580;50.106;8.702;2023-09-19T12:11:12;14.87;;;4.10;;
11054;SDS011;5580;50.106;8.702;2023-09-19T12:13:43;12.37;;;3.90;;
11054;SDS011;5580;50.106;8.702;2023-09-19T12:16:13;7.57;;;3.60;;
11054;SDS011;5580;50.106;8.702;2023-09-19T12:18:43;10.10;;;3.83;;
11054;SDS011;5580;50.106;8.702;2023-09-19T12:21:23;11.83;;;3.70;;
11054;SDS011;5580;50.106;8.702;2023-09-19T12:26:38;7.63;;;3.43;;
11054;SDS011;5580;50.106;8.702;2023-09-19T12:29:21;10.13;;;3.77;;
11054;SDS011;5580;50.106;8.702;2023-09-19T12:31:47;10.87;;;3.80;;
11054;SDS011;5580;50.106;8.702;2023-09-19T12:34:19;8.10;;;3.70;;
11054;SDS011;5580;50.106;8.702;2023-09-19T12:37:13;9.83;;;4.03;;
11054;SDS011;5580;50.106;8.702;2023-09-19T12:39:46;7.13;;;3.53;;
11054;SDS011;5580;50.106;8.702;2023-09-19T12:42:16;9.63;;;3.60;;
11054;SDS011;5580;50.106;8.702;2023-09-19T12:44:46;8.50;;;3.60;;
11054;SDS011;5580;50.106;8.702;2023-09-19T12:47:15;8.30;;;3.33;;
11054;SDS011;5580;50.106;8.702;2023-09-19T12:52:34;7.47;;;3.43;;
11054;SDS011;5580;50.106;8.702;2023-09-19T12:55:01;7.27;;;3.30;;
11054;SDS011;5580;50.106;8.702;2023-09-19T12:57:28;7.70;;;3.50;;
11054;SDS011;5580;50.106;8.702;2023-09-19T12:59:53;8.33;;;3.50;;
11054;SDS011;5580;50.106;8.702;2023-09-19T13:02:20;7.80;;;3.67;;
11054;SDS011;5580;50.106;8.702;2023-09-19T13:04:52;10.13;;;3.80;;
11054;SDS011;5580;50.106;8.702;2023-09-19T13:10:14;9.23;;;2.97;;
11054;SDS011;5580;50.106;8.702;2023-09-19T13:12:41;8.67;;;3.60;;
11054;SDS011;5580;50.106;8.702;2023-09-19T13:15:13;8.13;;;3.27;;
11054;SDS011;5580;50.106;8.702;2023-09-19T13:17:48;9.70;;;3.47;;
11054;SDS011;5580;50.106;8.702;2023-09-19T13:20:24;8.63;;;3.47;;
11054;SDS011;5580;50.106;8.702;2023-09-19T13:22:53;8.53;;;3.37;;
11054;SDS011;5580;50.106;8.702;2023-09-19T13:25:23;8.93;;;3.70;;
11054;SDS011;5580;50.106;8.702;2023-09-19T13:27:49;6.37;;;3.30;;
11054;SDS011;5580;50.106;8.702;2023-09-19T13:30:17;10.67;;;3.63;;
11054;SDS011;5580;50.106;8.702;2023-09-19T13:32:44;8.07;;;3.23;;
11054;SDS011;5580;50.106;8.702;2023-09-19T13:35:12;6.63;;;3.30;;
11054;SDS011;5580;50.106;8.702;2023-09-19T13:37:39;8.00;;;3.70;;
11054;SDS011;5580;50.106;8.702;2023-09-19T13:42:34;8.60;;;3.30;;
11054;SDS011;5580;50.106;8.702;2023-09-19T13:45:01;10.73;;;3.40;;
11054;SDS011;5580;50.106;8.702;2023-09-19T13:47:29;7.93;;;3.17;;
11054;SDS011;5580;50.106;8.702;2023-09-19T13:49:55;8.00;;;3.83;;
11054;SDS011;5580;50.106;8.702;2023-09-19T13:52:21;8.17;;;3.70;;
11054;SDS011;5580;50.106;8.702;2023-09-19T13:54:48;7.10;;;3.03;;
11054;SDS011;5580;50.106;8.702;2023-09-19T13:57:18;7.63;;;3.13;;
11054;SDS011;5580;50.106;8.702;2023-09-19T13:59:43;6.93;;;3.27;;
11054;SDS011;5580;50.106;8.702;2023-09-19T14:02:09;5.67;;;3.20;;
11054;SDS011;5580;50.106;8.702;2023-09-19T14:04:35;8.93;;;3.20;;
11054;SDS011;5580;50.106;8.702;2023-09-19T14:07:01;6.07;;;2.97;;
11054;SDS011;5580;50.106;8.702;2023-09-19T14:09:27;6.90;;;2.90;;
11054;SDS011;5580;50.106;8.702;2023-09-19T14:11:52;8.17;;;3.07;;
11054;SDS011;5580;50.106;8.702;2023-09-19T14:14:18;16.03;;;3.27;;
11054;SDS011;5580;50.106;8.702;2023-09-19T14:16:45;7.10;;;3.23;;
11054;SDS011;5580;50.106;8.702;2023-09-19T14:19:12;4.60;;;2.50;;
11054;SDS011;5580;50.106;8.702;2023-09-19T14:21:40;7.17;;;2.80;;
11054;SDS011;5580;50.106;8.702;2023-09-19T14:24:05;6.10;;;2.90;;
11054;SDS011;5580;50.106;8.702;2023-09-19T14:26:34;6.43;;;2.90;;
11054;SDS011;5580;50.106;8.702;2023-09-19T14:29:00;8.20;;;3.43;;
11054;SDS011;5580;50.106;8.702;2023-09-19T14:31:26;5.60;;;3.30;;
11054;SDS011;5580;50.106;8.702;2023-09-19T14:33:53;6.57;;;3.00;;
11054;SDS011;5580;50.106;8.702;2023-09-19T14:36:20;5.77;;;2.87;;
11054;SDS011;5580;50.106;8.702;2023-09-19T14:38:46;6.77;;;2.80;;
11054;SDS011;5580;50.106;8.702;2023-09-19T14:41:12;5.17;;;2.90;;
11054;SDS011;5580;50.106;8.702;2023-09-19T14:43:38;7.23;;;2.73;;
11054;SDS011;5580;50.106;8.702;2023-09-19T14:46:04;8.80;;;2.60;;
11054;SDS011;5580;50.106;8.702;2023-09-19T14:48:32;5.80;;;2.50;;
11054;SDS011;5580;50.106;8.702;2023-09-19T14:51:05;9.30;;;3.50;;
11054;SDS011;5580;50.106;8.702;2023-09-19T14:53:33;6.30;;;3.10;;
11054;SDS011;5580;50.106;8.702;2023-09-19T14:56:00;7.30;;;3.10;;
11054;SDS011;5580;50.106;8.702;2023-09-19T14:58:28;7.40;;;3.07;;
11054;SDS011;5580;50.106;8.702;2023-09-19T15:01:02;6.20;;;3.07;;
11054;SDS011;5580;50.106;8.702;2023-09-19T15:03:29;8.03;;;3.00;;
11054;SDS011;5580;50.106;8.702;2023-09-19T15:08:51;7.67;;;3.50;;
11054;SDS011;5580;50.106;8.702;2023-09-19T15:11:17;8.17;;;3.50;;
11054;SDS011;5580;50.106;8.702;2023-09-19T15:13:43;5.83;;;3.07;;
11054;SDS011;5580;50.106;8.702;2023-09-19T15:16:10;6.87;;;3.60;;
11054;SDS011;5580;50.106;8.702;2023-09-19T15:18:40;6.80;;;3.30;;
11054;SDS011;5580;50.106;8.702;2023-09-19T15:21:07;5.00;;;3.23;;
11054;SDS011;5580;50.106;8.702;2023-09-19T15:23:34;6.30;;;3.03;;
11054;SDS011;5580;50.106;8.702;2023-09-19T15:26:02;7.87;;;3.33;;
11054;SDS011;5580;50.106;8.702;2023-09-19T15:28:28;6.33;;;2.87;;
11054;SDS011;5580;50.106;8.702;2023-09-19T15:31:01;5.70;;;3.07;;
11054;SDS011;5580;50.106;8.702;2023-09-19T15:33:28;8.60;;;3.43;;
11054;SDS011;5580;50.106;8.702;2023-09-19T15:36:02;8.83;;;3.30;;
11054;SDS011;5580;50.106;8.702;2023-09-19T15:38:28;8.43;;;2.80;;
11054;SDS011;5580;50.106;8.702;2023-09-19T15:40:54;3.63;;;2.97;;
11054;SDS011;5580;50.106;8.702;2023-09-19T15:43:20;6.10;;;3.40;;
11054;SDS011;5580;50.106;8.702;2023-09-19T15:45:46;8.30;;;3.30;;
11054;SDS011;5580;50.106;8.702;2023-09-19T15:48:13;4.63;;;2.63;;
11054;SDS011;5580;50.106;8.702;2023-09-19T15:50:39;8.13;;;3.57;;
11054;SDS011;5580;50.106;8.702;2023-09-19T15:53:07;4.33;;;2.90;;
11054;SDS011;5580;50.106;8.702;2023-09-19T15:55:38;5.30;;;3.03;;
11054;SDS011;5580;50.106;8.702;2023-09-19T15:58:04;3.93;;;2.43;;
11054;SDS011;5580;50.106;8.702;2023-09-19T16:00:31;5.43;;;3.20;;
11054;SDS011;5580;50.106;8.702;2023-09-19T16:03:01;6.70;;;2.97;;
11054;SDS011;5580;50.106;8.702;2023-09-19T16:05:36;6.33;;;3.37;;
11054;SDS011;5580;50.106;8.702;2023-09-19T16:08:04;6.83;;;2.87;;
11054;SDS011;5580;50.106;8.702;2023-09-19T16:10:36;4.87;;;3.00;;
11054;SDS011;5580;50.106;8.702;2023-09-19T16:13:04;5.90;;;2.93;;
11054;SDS011;5580;50.106;8.702;2023-09-19T16:15:30;4.90;;;3.03;;
11054;SDS011;5580;50.106;8.702;2023-09-19T16:17:56;5.83;;;3.13;;
11054;SDS011;5580;50.106;8.702;2023-09-19T16:20:21;5.13;;;2.93;;
11054;SDS011;5580;50.106;8.702;2023-09-19T16:22:48;6.80;;;3.00;;
11054;SDS011;5580;50.106;8.702;2023-09-19T16:25:14;5.63;;;3.07;;
11054;SDS011;5580;50.106;8.702;2023-09-19T16:27:39;3.57;;;2.60;;